Time;durP1;ratioP1;P1;durP2;ratioP2;P2;SDS_P1;SDS_P2;PMS_P1;PMS_P2;Temp;Humidity;BMP_temperature;BMP_pressure;BME280_temperature;BME280_humidity;BME280_pressure;Samples;Min_cycle;Max_cycle;Signal;HPM_P1;HPM_P2
2021/03/03 00:02:25;;;;;;;18.05;3.85;;;20.60;37.90;;;;;;5109742;28;20449;-72
2021/03/03 00:04:51;;;;;;;9.82;3.45;;;20.40;37.70;;;;;;5106960;28;20027;-72
2021/03/03 00:07:18;;;;;;;10.45;5.13;;;20.30;38.20;;;;;;5106929;28;20073;-72
2021/03/03 00:09:44;;;;;;;14.73;3.28;;;20.50;37.90;;;;;;5106580;28;20069;-72
2021/03/03 00:12:11;;;;;;;9.23;3.75;;;20.50;37.80;;;;;;5106904;28;20020;-72
2021/03/03 00:14:37;;;;;;;25.85;3.92;;;20.50;38.00;;;;;;5107496;28;20165;-72
2021/03/03 00:17:04;;;;;;;14.38;3.42;;;20.30;37.70;;;;;;5101237;28;20397;-73
2021/03/03 00:19:30;;;;;;;13.10;4.43;;;20.10;38.00;;;;;;5094380;28;20032;-72
2021/03/03 00:21:57;;;;;;;16.70;4.30;;;20.00;38.20;;;;;;5104368;28;20036;-72
2021/03/03 00:24:23;;;;;;;16.73;3.63;;;19.90;38.50;;;;;;5103175;28;20027;-72
2021/03/03 00:26:50;;;;;;;11.82;3.47;;;19.90;38.70;;;;;;5097638;28;20023;-72
2021/03/03 00:29:16;;;;;;;15.88;3.30;;;19.90;39.10;;;;;;5094822;28;20098;-72
2021/03/03 00:31:43;;;;;;;16.23;3.80;;;19.80;38.80;;;;;;5105169;28;20027;-73
2021/03/03 00:34:09;;;;;;;21.25;4.78;;;19.60;39.30;;;;;;5094247;28;20031;-72
2021/03/03 00:36:36;;;;;;;11.57;3.35;;;19.60;39.20;;;;;;5105742;28;20020;-72
2021/03/03 00:39:03;;;;;;;16.95;3.85;;;19.50;39.50;;;;;;5102991;28;20024;-73
2021/03/03 00:41:29;;;;;;;10.18;3.70;;;19.30;39.40;;;;;;5106563;28;20106;-72
2021/03/03 00:43:56;;;;;;;15.05;3.85;;;19.40;39.50;;;;;;5104882;28;20020;-72
2021/03/03 00:46:22;;;;;;;17.98;3.97;;;19.30;39.50;;;;;;5105255;28;20020;-72
2021/03/03 00:48:49;;;;;;;13.95;3.28;;;19.10;39.50;;;;;;5105498;28;20323;-72
2021/03/03 00:51:16;;;;;;;11.68;3.10;;;18.90;41.00;;;;;;5104594;28;20111;-72
2021/03/03 00:53:45;;;;;;;16.42;4.25;;;19.00;40.70;;;;;;5104367;28;20069;-71
2021/03/03 00:56:11;;;;;;;18.33;3.67;;;18.90;40.80;;;;;;5103372;28;20407;-72
2021/03/03 00:58:38;;;;;;;10.90;2.65;;;18.80;40.10;;;;;;5105932;28;20121;-72
2021/03/03 01:01:04;;;;;;;18.67;4.45;;;18.80;40.70;;;;;;5107201;28;20020;-72
2021/03/03 01:03:31;;;;;;;13.75;3.38;;;18.80;40.20;;;;;;5103502;28;20498;-72
2021/03/03 01:05:57;;;;;;;14.10;2.42;;;19.00;40.20;;;;;;5105512;28;20039;-72
2021/03/03 01:08:24;;;;;;;14.05;3.60;;;19.10;40.50;;;;;;5107030;28;20111;-73
2021/03/03 01:10:50;;;;;;;22.42;5.28;;;19.10;40.00;;;;;;5106786;28;20426;-75
2021/03/03 01:13:17;;;;;;;9.27;3.65;;;19.00;40.30;;;;;;5103009;28;20030;-76
2021/03/03 01:15:43;;;;;;;13.80;4.30;;;19.00;40.20;;;;;;5101330;28;20111;-73
2021/03/03 01:18:09;;;;;;;12.25;3.33;;;18.80;40.40;;;;;;5099850;27;20028;-72
2021/03/03 01:20:37;;;;;;;21.65;4.65;;;18.80;40.70;;;;;;5105324;28;20027;-72
2021/03/03 01:23:07;;;;;;;17.77;3.08;;;18.70;40.70;;;;;;5104292;28;20453;-72
2021/03/03 01:25:34;;;;;;;12.23;3.17;;;18.70;40.60;;;;;;5101933;28;20023;-73
2021/03/03 01:28:01;;;;;;;13.50;3.50;;;18.70;40.30;;;;;;5105424;28;20089;-71
2021/03/03 01:30:27;;;;;;;17.60;3.65;;;18.60;40.90;;;;;;5105326;28;20028;-72
2021/03/03 01:32:54;;;;;;;13.35;3.40;;;18.50;41.20;;;;;;5089507;28;20020;-72
2021/03/03 01:35:20;;;;;;;19.88;3.70;;;18.50;40.80;;;;;;5102949;28;20028;-72
2021/03/03 01:37:46;;;;;;;17.48;4.35;;;18.50;40.70;;;;;;5104414;28;20083;-71
2021/03/03 01:40:14;;;;;;;19.48;3.67;;;18.50;40.40;;;;;;5102908;28;20023;-74
2021/03/03 01:42:40;;;;;;;27.30;4.78;;;18.30;41.00;;;;;;5103428;28;20031;-72
2021/03/03 01:45:07;;;;;;;15.25;3.83;;;18.40;40.60;;;;;;5105877;28;20027;-72
2021/03/03 01:47:34;;;;;;;16.67;3.22;;;18.30;40.60;;;;;;5106763;28;20043;-73
2021/03/03 01:50:06;;;;;;;15.07;3.33;;;18.30;40.80;;;;;;5108735;27;20019;-73
2021/03/03 01:52:36;;;;;;;15.32;3.15;;;18.20;40.70;;;;;;5103674;28;20403;-72
2021/03/03 01:55:04;;;;;;;12.90;3.63;;;18.10;40.90;;;;;;5102495;28;20035;-73
2021/03/03 01:57:31;;;;;;;14.60;3.28;;;18.00;40.70;;;;;;5103120;28;20362;-73
2021/03/03 01:59:57;;;;;;;13.27;3.78;;;17.80;41.50;;;;;;5104242;28;20024;-73
2021/03/03 02:02:24;;;;;;;14.30;3.45;;;17.80;41.60;;;;;;5103069;28;20019;-72
2021/03/03 02:04:54;;;;;;;17.27;3.67;;;17.80;41.20;;;;;;5105347;28;20024;-72
2021/03/03 02:07:39;;;;;;;10.63;3.38;;;17.80;41.50;;;;;;5105058;28;20498;-72
2021/03/03 02:10:28;;;;;;;14.50;3.80;;;17.60;41.20;;;;;;5101430;28;20099;-71
2021/03/03 02:13:11;;;;;;;20.08;3.83;;;17.60;41.20;;;;;;5101603;28;20085;-73
2021/03/03 02:15:40;;;;;;;15.13;5.03;;;17.60;41.70;;;;;;5103171;28;20033;-72
2021/03/03 02:18:10;;;;;;;10.20;2.60;;;17.50;41.70;;;;;;5105965;28;20039;-72
2021/03/03 02:20:47;;;;;;;18.48;3.67;;;17.40;42.10;;;;;;5104978;28;20036;-72
2021/03/03 02:23:58;;;;;;;9.55;4.18;;;17.30;42.20;;;;;;5102744;28;20036;-71
2021/03/03 02:26:33;;;;;;;15.73;4.57;;;17.20;42.00;;;;;;5082963;28;20457;-72
2021/03/03 02:29:10;;;;;;;10.35;4.03;;;17.10;42.60;;;;;;5104550;28;20089;-72
2021/03/03 02:31:42;;;;;;;12.77;3.35;;;17.00;42.70;;;;;;5104895;28;20127;-71
2021/03/03 02:34:12;;;;;;;13.70;4.70;;;17.00;43.00;;;;;;5104971;28;20031;-71
2021/03/03 02:36:40;;;;;;;14.15;4.00;;;17.00;42.80;;;;;;5096015;28;20027;-71
2021/03/03 02:39:07;;;;;;;17.08;3.97;;;16.90;43.20;;;;;;5096052;28;20454;-71
2021/03/03 02:41:34;;;;;;;14.50;3.83;;;16.90;42.20;;;;;;5093838;28;20111;-71
2021/03/03 02:44:04;;;;;;;19.00;4.55;;;17.00;42.40;;;;;;5089019;28;20067;-71
2021/03/03 02:46:33;;;;;;;10.50;3.15;;;16.90;43.30;;;;;;5087396;28;20027;-72
2021/03/03 02:49:01;;;;;;;13.30;3.03;;;16.80;43.20;;;;;;5098946;28;20048;-72
2021/03/03 02:51:28;;;;;;;19.25;4.18;;;16.70;42.40;;;;;;5101327;28;20056;-75
2021/03/03 02:53:55;;;;;;;13.35;3.95;;;16.70;43.40;;;;;;5105952;28;20019;-73
2021/03/03 02:56:23;;;;;;;17.85;3.75;;;16.70;43.70;;;;;;5092721;28;20023;-74
2021/03/03 02:58:50;;;;;;;10.20;3.38;;;16.70;43.40;;;;;;5098026;28;20020;-73
2021/03/03 03:01:20;;;;;;;12.95;3.85;;;16.60;43.60;;;;;;5099413;28;20027;-72
2021/03/03 03:03:58;;;;;;;12.68;3.55;;;16.50;43.30;;;;;;5097897;28;20024;-73
2021/03/03 03:06:29;;;;;;;14.30;3.65;;;16.30;44.30;;;;;;5095106;28;20055;-73
2021/03/03 03:09:03;;;;;;;15.00;3.17;;;16.10;44.70;;;;;;5101645;28;20099;-72
2021/03/03 03:11:32;;;;;;;14.10;3.38;;;16.10;43.70;;;;;;5088596;28;20025;-73
2021/03/03 03:14:14;;;;;;;13.48;3.63;;;16.20;43.80;;;;;;5102375;28;20022;-73
2021/03/03 03:16:42;;;;;;;;;;;16.10;44.10;;;;;;5105775;28;20357;-73
2021/03/03 03:19:13;;;;;;;16.52;4.10;;;16.00;43.60;;;;;;5099580;28;19911;-72
2021/03/03 03:21:44;;;;;;;20.75;3.30;;;16.00;44.00;;;;;;5100273;28;20048;-72
2021/03/03 03:24:12;;;;;;;16.98;4.43;;;16.10;44.70;;;;;;5103247;28;20065;-72
2021/03/03 03:26:39;;;;;;;12.60;3.72;;;16.10;44.60;;;;;;5097079;28;20039;-72
2021/03/03 03:29:08;;;;;;;17.00;3.63;;;15.90;45.90;;;;;;5104568;28;20058;-72
2021/03/03 03:31:38;;;;;;;9.63;2.97;;;15.90;44.70;;;;;;5105850;28;20024;-72
2021/03/03 03:34:09;;;;;;;17.45;3.83;;;15.80;45.40;;;;;;5105167;28;20102;-72
2021/03/03 03:36:37;;;;;;;9.20;3.03;;;15.70;45.50;;;;;;5106752;28;20390;-72
2021/03/03 03:39:09;;;;;;;10.60;2.95;;;15.70;45.70;;;;;;5105567;28;20027;-72
2021/03/03 03:41:36;;;;;;;17.38;4.85;;;15.70;45.40;;;;;;5104389;28;20028;-72
2021/03/03 03:44:06;;;;;;;20.00;3.83;;;15.70;44.70;;;;;;5105329;28;20035;-73
2021/03/03 03:46:33;;;;;;;11.02;2.95;;;15.70;44.90;;;;;;5108887;28;20468;-72
2021/03/03 03:48:59;;;;;;;10.57;3.53;;;15.60;46.00;;;;;;5105956;28;20020;-73
2021/03/03 03:51:27;;;;;;;13.60;3.30;;;15.60;44.80;;;;;;5106390;28;20023;-72
2021/03/03 03:53:54;;;;;;;8.98;3.70;;;15.60;46.00;;;;;;5106634;28;20058;-72
2021/03/03 03:56:20;;;;;;;14.32;3.85;;;15.50;45.90;;;;;;5103113;28;20024;-72
2021/03/03 03:58:46;;;;;;;13.48;3.50;;;15.40;46.10;;;;;;5096900;28;20024;-72
2021/03/03 04:01:13;;;;;;;12.95;3.92;;;15.50;45.60;;;;;;5108804;28;20028;-72
2021/03/03 04:03:40;;;;;;;18.52;4.07;;;15.50;45.20;;;;;;5102665;28;20036;-72
2021/03/03 04:06:06;;;;;;;16.17;3.78;;;15.50;45.70;;;;;;5102873;28;20050;-73
2021/03/03 04:08:33;;;;;;;20.05;4.10;;;15.50;45.30;;;;;;5098580;28;20453;-72
2021/03/03 04:10:59;;;;;;;15.63;3.58;;;15.40;45.80;;;;;;5102120;28;20038;-71
2021/03/03 04:13:26;;;;;;;11.50;3.63;;;15.30;46.30;;;;;;5093871;28;20366;-73
2021/03/03 04:15:52;;;;;;;20.30;5.15;;;15.30;45.60;;;;;;5100175;28;20023;-72
2021/03/03 04:18:18;;;;;;;14.90;3.95;;;15.30;45.80;;;;;;5106173;28;20471;-71
2021/03/03 04:20:45;;;;;;;13.57;3.42;;;15.40;45.90;;;;;;5108399;28;20046;-72
2021/03/03 04:23:12;;;;;;;11.95;2.67;;;15.10;46.50;;;;;;5104812;28;20036;-72
2021/03/03 04:25:38;;;;;;;20.58;3.90;;;15.00;47.70;;;;;;5106372;28;20429;-71
2021/03/03 04:28:05;;;;;;;10.75;3.33;;;15.00;46.70;;;;;;5101024;28;20020;-72
2021/03/03 04:30:32;;;;;;;16.48;3.53;;;15.00;47.40;;;;;;5096300;28;20035;-71
2021/03/03 04:32:59;;;;;;;15.65;3.58;;;14.90;47.20;;;;;;5098707;28;20126;-72
2021/03/03 04:35:26;;;;;;;11.25;3.03;;;14.90;45.70;;;;;;5100322;28;20038;-71
2021/03/03 04:37:53;;;;;;;10.73;4.28;;;14.90;46.50;;;;;;5103350;28;20024;-72
2021/03/03 04:40:19;;;;;;;9.48;3.15;;;14.90;46.20;;;;;;5104199;28;20352;-72
2021/03/03 04:42:46;;;;;;;9.60;3.13;;;14.90;47.20;;;;;;5104448;28;20027;-73
2021/03/03 04:45:13;;;;;;;8.88;3.85;;;14.80;47.90;;;;;;5106448;28;20028;-72
2021/03/03 04:47:40;;;;;;;13.85;3.63;;;14.80;47.90;;;;;;5105582;28;20085;-72
2021/03/03 04:50:08;;;;;;;14.73;3.63;;;14.70;47.70;;;;;;5101960;28;20031;-72
2021/03/03 04:52:36;;;;;;;13.07;3.60;;;14.70;46.80;;;;;;5095273;28;20435;-72
2021/03/03 04:55:04;;;;;;;22.83;4.28;;;14.70;48.30;;;;;;5104079;28;20019;-72
2021/03/03 04:57:30;;;;;;;14.20;4.28;;;14.70;47.40;;;;;;5103904;28;20028;-71
2021/03/03 04:59:56;;;;;;;14.20;3.95;;;14.70;47.30;;;;;;5104384;28;20046;-72
2021/03/03 05:02:23;;;;;;;7.22;2.80;;;14.70;48.20;;;;;;5105848;28;20028;-72
2021/03/03 05:04:49;;;;;;;14.70;3.50;;;14.70;48.00;;;;;;5106189;28;20020;-72
2021/03/03 05:07:16;;;;;;;14.95;3.53;;;14.60;48.10;;;;;;5105789;28;20028;-72
2021/03/03 05:09:42;;;;;;;9.77;3.08;;;14.60;48.40;;;;;;5105374;28;20080;-72
2021/03/03 05:12:09;;;;;;;10.52;2.55;;;14.50;48.00;;;;;;5106182;28;20019;-72
2021/03/03 05:14:36;;;;;;;9.02;2.80;;;14.50;48.10;;;;;;5106192;28;20024;-72
2021/03/03 05:17:03;;;;;;;8.18;2.53;;;14.40;47.90;;;;;;5102955;28;20038;-72
2021/03/03 05:19:30;;;;;;;8.35;2.63;;;14.40;48.10;;;;;;5105966;28;20510;-72
2021/03/03 05:21:56;;;;;;;11.93;3.33;;;14.40;48.30;;;;;;5105190;28;20020;-72
2021/03/03 05:24:22;;;;;;;6.53;2.55;;;14.30;47.80;;;;;;5105225;28;20461;-72
2021/03/03 05:26:49;;;;;;;9.45;3.45;;;14.30;47.80;;;;;;5103571;28;20047;-72
2021/03/03 05:29:15;;;;;;;12.70;4.07;;;14.20;48.40;;;;;;5103794;28;20035;-72
2021/03/03 05:31:42;;;;;;;12.45;3.70;;;14.20;48.10;;;;;;5103886;28;20028;-72
2021/03/03 05:34:08;;;;;;;15.07;3.78;;;14.20;48.80;;;;;;5105818;28;20042;-72
2021/03/03 05:36:35;;;;;;;11.95;3.65;;;14.20;49.10;;;;;;5107846;28;20016;-72
2021/03/03 05:39:01;;;;;;;12.38;3.70;;;14.20;47.90;;;;;;5105752;28;20073;-72
2021/03/03 05:41:28;;;;;;;10.55;3.65;;;14.20;48.70;;;;;;5105473;28;20012;-72
2021/03/03 05:43:54;;;;;;;11.30;3.72;;;14.10;48.80;;;;;;5104914;28;20111;-75
2021/03/03 05:46:21;;;;;;;10.20;4.82;;;14.10;47.30;;;;;;5112897;28;20073;-75
2021/03/03 05:48:52;;;;;;;12.38;3.13;;;14.10;48.10;;;;;;5110317;28;20028;-73
2021/03/03 05:51:22;;;;;;;13.63;5.57;;;14.00;48.70;;;;;;5107456;28;20043;-74
2021/03/03 05:53:49;;;;;;;12.13;4.03;;;14.00;48.70;;;;;;5108508;28;20456;-74
2021/03/03 05:56:19;;;;;;;15.05;4.40;;;14.00;48.00;;;;;;5108241;28;20028;-74
2021/03/03 05:58:45;;;;;;;14.45;3.83;;;14.00;48.60;;;;;;5109261;28;20072;-75
2021/03/03 06:01:12;;;;;;;9.55;3.65;;;13.90;49.50;;;;;;5106490;28;20023;-72
2021/03/03 06:03:38;;;;;;;13.18;3.13;;;13.80;49.60;;;;;;5102240;28;20015;-72
2021/03/03 06:06:05;;;;;;;12.57;5.35;;;13.80;47.40;;;;;;5096977;28;20028;-72
2021/03/03 06:08:33;;;;;;;12.05;3.83;;;13.70;49.60;;;;;;5097923;28;20107;-72
2021/03/03 06:11:00;;;;;;;12.30;3.08;;;13.70;50.10;;;;;;5104686;28;20024;-71
2021/03/03 06:13:27;;;;;;;14.70;4.30;;;13.80;50.10;;;;;;5098080;28;20031;-72
2021/03/03 06:15:54;;;;;;;14.07;4.32;;;13.80;48.60;;;;;;5104277;28;20031;-72
2021/03/03 06:18:22;;;;;;;18.40;4.63;;;14.00;49.40;;;;;;5101043;28;20357;-72
2021/03/03 06:20:51;;;;;;;9.68;3.00;;;13.90;49.80;;;;;;5092576;28;20036;-72
2021/03/03 06:23:27;;;;;;;12.88;3.08;;;13.80;50.60;;;;;;5100297;28;20472;-72
2021/03/03 06:25:57;;;;;;;10.65;3.63;;;13.90;49.20;;;;;;5102911;28;20051;-72
2021/03/03 06:28:40;;;;;;;11.70;3.92;;;13.80;49.40;;;;;;5099803;28;20036;-72
2021/03/03 06:31:28;;;;;;;10.32;2.80;;;13.70;49.40;;;;;;5104035;28;20035;-71
2021/03/03 06:34:09;;;;;;;11.27;3.70;;;13.70;49.50;;;;;;5103298;28;20016;-72
2021/03/03 06:36:36;;;;;;;12.48;4.10;;;13.70;48.80;;;;;;5104322;28;20450;-72
2021/03/03 06:39:34;;;;;;;11.27;3.40;;;13.70;48.90;;;;;;5102837;28;20135;-72
2021/03/03 06:42:06;;;;;;;14.65;3.30;;;13.80;49.10;;;;;;5092020;28;20055;-72
2021/03/03 06:44:46;;;;;;;13.57;5.00;;;13.70;50.30;;;;;;5102557;28;20046;-72
2021/03/03 06:47:13;;;;;;;11.27;3.40;;;13.80;48.90;;;;;;5101890;28;20034;-72
2021/03/03 06:49:39;;;;;;;11.20;3.80;;;13.90;49.40;;;;;;5102617;28;20031;-72
2021/03/03 06:52:07;;;;;;;16.25;5.47;;;13.90;49.10;;;;;;5102489;28;20016;-71
2021/03/03 06:54:33;;;;;;;8.48;3.40;;;13.90;48.90;;;;;;5101963;28;20398;-72
2021/03/03 06:57:14;;;;;;;14.93;4.13;;;13.90;49.80;;;;;;5102413;28;20023;-72
2021/03/03 06:59:45;;;;;;;15.05;3.70;;;14.00;49.60;;;;;;5101299;28;20054;-71
2021/03/03 07:02:15;;;;;;;7.80;3.47;;;14.10;50.00;;;;;;5101382;28;20055;-71
2021/03/03 07:04:45;;;;;;;11.82;4.28;;;14.10;49.50;;;;;;5103387;28;20100;-71
2021/03/03 07:07:19;;;;;;;14.10;4.18;;;14.10;50.20;;;;;;5104030;28;20028;-72
2021/03/03 07:09:49;;;;;;;10.88;3.80;;;13.90;49.70;;;;;;5103044;28;20020;-72
2021/03/03 07:12:21;;;;;;;14.38;3.35;;;14.10;50.40;;;;;;5103590;28;20055;-71
2021/03/03 07:15:03;;;;;;;16.65;4.35;;;13.90;49.10;;;;;;5103706;28;20024;-73
2021/03/03 07:17:39;;;;;;;19.63;5.07;;;13.80;49.50;;;;;;5103068;28;20066;-72
2021/03/03 07:20:17;;;;;;;12.63;4.30;;;13.90;49.70;;;;;;5101286;28;20047;-72
2021/03/03 07:22:51;;;;;;;12.68;3.92;;;13.90;49.60;;;;;;5104898;28;20107;-71
2021/03/03 07:25:20;;;;;;;6.82;3.13;;;13.80;49.00;;;;;;5102527;28;20035;-72
2021/03/03 07:27:48;;;;;;;13.40;4.00;;;13.60;50.00;;;;;;5096995;28;20035;-72
2021/03/03 07:30:15;;;;;;;9.45;3.45;;;13.60;49.60;;;;;;5101454;28;20454;-72
2021/03/03 07:32:42;;;;;;;7.57;2.30;;;13.50;49.90;;;;;;5102996;28;20016;-71
2021/03/03 07:35:11;;;;;;;4.72;2.55;;;13.30;50.60;;;;;;5101252;28;20039;-72
2021/03/03 07:37:57;;;;;;;14.32;3.58;;;13.30;50.60;;;;;;5099851;28;20519;-72
2021/03/03 07:40:31;;;;;;;11.55;3.00;;;13.30;50.80;;;;;;5102433;28;20032;-72
2021/03/03 07:43:00;;;;;;;12.27;3.08;;;13.20;50.00;;;;;;5103140;28;20058;-72
2021/03/03 07:45:36;;;;;;;14.57;3.30;;;13.30;49.60;;;;;;5099046;28;20034;-72
2021/03/03 07:48:08;;;;;;;10.10;3.67;;;13.20;49.30;;;;;;5099874;28;20020;-72
2021/03/03 07:50:35;;;;;;;14.52;3.13;;;13.30;49.30;;;;;;5100940;28;20012;-76
2021/03/03 07:53:01;;;;;;;21.00;5.07;;;13.30;49.10;;;;;;5103785;28;20103;-72
2021/03/03 07:55:28;;;;;;;10.48;4.18;;;13.20;49.10;;;;;;5103946;28;20111;-72
2021/03/03 07:57:58;;;;;;;11.10;4.35;;;13.50;49.30;;;;;;5101587;28;20055;-72
2021/03/03 08:00:37;;;;;;;12.98;3.33;;;13.40;48.90;;;;;;5100372;28;20038;-72
2021/03/03 08:03:04;;;;;;;9.80;3.92;;;13.20;49.00;;;;;;5102681;28;20453;-72
2021/03/03 08:05:39;;;;;;;8.75;3.08;;;13.10;49.70;;;;;;5098468;28;20077;-71
2021/03/03 08:08:36;;;;;;;10.40;3.17;;;13.00;50.10;;;;;;5099820;28;20107;-72
2021/03/03 08:11:02;;;;;;;13.77;5.03;;;13.00;49.40;;;;;;5097478;28;20115;-72
2021/03/03 08:13:35;;;;;;;15.38;3.08;;;13.10;49.50;;;;;;5099110;28;20082;-71
2021/03/03 08:16:06;;;;;;;8.52;3.75;;;13.10;49.40;;;;;;5101645;28;20303;-72
2021/03/03 08:18:37;;;;;;;9.68;3.38;;;13.10;49.40;;;;;;5100797;28;20043;-71
2021/03/03 08:21:09;;;;;;;12.68;5.28;;;13.10;49.10;;;;;;5105300;28;20046;-73
2021/03/03 08:23:37;;;;;;;10.48;4.18;;;12.90;49.90;;;;;;5106796;28;20028;-72
2021/03/03 08:26:05;;;;;;;10.88;3.25;;;13.00;49.50;;;;;;5106225;28;20031;-71
2021/03/03 08:28:36;;;;;;;10.05;3.45;;;12.80;49.20;;;;;;5103250;28;20031;-72
2021/03/03 08:31:05;;;;;;;9.98;3.83;;;12.80;49.30;;;;;;5106267;28;20023;-72
2021/03/03 08:33:36;;;;;;;6.93;2.95;;;12.60;49.60;;;;;;5109249;28;20107;-73
2021/03/03 08:36:03;;;;;;;8.02;4.25;;;12.50;50.00;;;;;;5106100;28;20420;-73
2021/03/03 08:38:30;;;;;;;7.55;3.53;;;12.50;49.60;;;;;;5102162;28;20107;-72
2021/03/03 08:41:14;;;;;;;11.02;2.83;;;12.60;49.60;;;;;;5104430;28;20032;-72
2021/03/03 08:43:48;;;;;;;21.60;4.15;;;12.60;49.20;;;;;;5106727;28;20039;-72
2021/03/03 08:46:20;;;;;;;19.50;3.45;;;12.60;49.30;;;;;;5104577;28;20020;-72
2021/03/03 08:48:53;;;;;;;7.85;3.20;;;12.70;50.20;;;;;;5105721;28;20030;-71
2021/03/03 08:51:38;;;;;;;7.82;3.28;;;12.70;49.60;;;;;;5106495;28;20354;-71
2021/03/03 08:54:04;;;;;;;10.80;3.08;;;12.70;50.30;;;;;;5101407;28;20342;-72
2021/03/03 08:56:53;;;;;;;14.10;4.30;;;12.70;50.10;;;;;;5102397;28;20032;-72
2021/03/03 08:59:29;;;;;;;17.08;3.88;;;12.70;50.40;;;;;;5106212;28;20023;-72
2021/03/03 09:01:55;;;;;;;11.95;3.35;;;12.60;50.10;;;;;;5105145;28;20126;-72
2021/03/03 09:04:24;;;;;;;11.90;4.47;;;12.50;50.30;;;;;;5101151;28;20032;-72
2021/03/03 09:06:55;;;;;;;8.80;3.95;;;12.60;50.70;;;;;;5101428;28;20028;-72
2021/03/03 09:09:22;;;;;;;9.98;3.67;;;12.70;50.50;;;;;;5095472;28;20358;-72
2021/03/03 09:12:02;;;;;;;11.75;3.60;;;12.70;51.10;;;;;;5100256;28;20028;-71
2021/03/03 09:14:29;;;;;;;10.27;3.90;;;12.70;50.70;;;;;;5104107;28;20488;-72
2021/03/03 09:17:01;;;;;;;11.77;3.72;;;12.60;50.30;;;;;;5105019;28;20023;-73
2021/03/03 09:19:28;;;;;;;8.32;3.38;;;12.50;50.50;;;;;;5102693;28;20085;-71
2021/03/03 09:21:55;;;;;;;9.85;3.45;;;12.60;50.60;;;;;;5106103;28;20088;-72
2021/03/03 09:24:22;;;;;;;10.52;3.95;;;12.60;50.40;;;;;;5095281;28;20024;-71
2021/03/03 09:26:49;;;;;;;18.13;4.55;;;12.60;51.10;;;;;;5102883;28;20020;-71
2021/03/03 09:29:27;;;;;;;8.35;3.33;;;12.60;50.60;;;;;;5099752;28;20376;-72
2021/03/03 09:31:53;;;;;;;10.32;3.80;;;12.40;50.60;;;;;;5100867;28;20105;-71
2021/03/03 09:34:20;;;;;;;11.38;3.75;;;12.40;51.10;;;;;;5100977;28;20032;-71
2021/03/03 09:37:01;;;;;;;9.65;2.47;;;12.40;50.90;;;;;;5099937;28;20031;-72
2021/03/03 09:39:29;;;;;;;11.05;3.13;;;12.30;51.30;;;;;;5100747;28;20034;-72
2021/03/03 09:42:05;;;;;;;10.90;3.92;;;12.20;51.80;;;;;;5102507;28;20020;-72
2021/03/03 09:44:50;;;;;;;10.88;3.53;;;12.20;50.90;;;;;;5103295;28;20063;-72
2021/03/03 09:47:25;;;;;;;6.47;3.15;;;12.30;50.70;;;;;;5104813;28;20024;-72
2021/03/03 09:49:52;;;;;;;8.80;3.53;;;12.30;50.60;;;;;;5103085;28;20023;-74
2021/03/03 09:52:18;;;;;;;12.40;3.22;;;12.30;51.20;;;;;;5106892;28;20051;-74
2021/03/03 09:54:45;;;;;;;13.00;3.45;;;12.20;51.50;;;;;;5108665;28;20073;-72
2021/03/03 09:57:20;;;;;;;13.65;4.70;;;12.20;50.60;;;;;;5104498;28;20020;-72
2021/03/03 09:59:48;;;;;;;14.38;3.55;;;12.20;50.40;;;;;;5107954;28;20096;-72
2021/03/03 10:02:21;;;;;;;11.10;4.00;;;12.30;50.60;;;;;;5099420;28;20028;-72
2021/03/03 10:04:48;;;;;;;9.20;3.78;;;12.40;51.20;;;;;;5103788;28;20118;-72
2021/03/03 10:07:19;;;;;;;7.35;2.92;;;12.30;50.60;;;;;;5105333;28;20036;-72
2021/03/03 10:09:46;;;;;;;12.10;3.70;;;12.10;51.10;;;;;;5103688;28;20024;-72
2021/03/03 10:12:16;;;;;;;8.82;3.28;;;12.00;51.00;;;;;;5102104;28;20028;-71
2021/03/03 10:15:10;;;;;;;8.27;3.58;;;12.00;51.20;;;;;;5103243;28;20107;-72
2021/03/03 10:17:42;;;;;;;4.60;3.08;;;12.00;51.50;;;;;;5103173;28;20039;-73
2021/03/03 10:20:29;;;;;;;6.32;3.40;;;12.00;52.00;;;;;;5102003;28;20032;-72
2021/03/03 10:22:56;;;;;;;13.25;3.72;;;12.00;52.30;;;;;;5101552;28;20036;-72
2021/03/03 10:25:37;;;;;;;10.57;3.75;;;11.90;51.80;;;;;;5100493;28;20049;-72
2021/03/03 10:28:10;;;;;;;12.32;4.07;;;11.90;52.20;;;;;;5103475;28;20045;-71
2021/03/03 10:30:40;;;;;;;;;;;12.00;52.50;;;;;;5101209;28;20031;-72
2021/03/03 10:33:08;;;;;;;8.82;3.17;;;12.10;52.10;;;;;;5102956;28;20002;-72
2021/03/03 10:35:50;;;;;;;6.38;3.70;;;12.00;52.00;;;;;;5104860;28;20016;-72
2021/03/03 10:38:19;;;;;;;7.50;3.17;;;11.90;52.50;;;;;;5104720;28;20024;-71
2021/03/03 10:40:47;;;;;;;7.82;3.25;;;12.00;52.20;;;;;;5103631;28;20449;-72
2021/03/03 10:43:22;;;;;;;7.97;3.83;;;12.00;52.30;;;;;;5107874;28;20028;-72
2021/03/03 10:46:09;;;;;;;6.75;3.30;;;11.80;51.90;;;;;;5104143;28;20028;-72
2021/03/03 10:48:35;;;;;;;10.50;3.22;;;11.70;52.60;;;;;;5102191;28;20020;-72
2021/03/03 10:51:02;;;;;;;9.02;3.33;;;11.60;52.80;;;;;;5104715;28;20035;-72
2021/03/03 10:53:48;;;;;;;7.32;3.67;;;11.50;53.10;;;;;;5108234;28;20031;-76
2021/03/03 10:56:22;;;;;;;7.13;3.40;;;11.40;52.80;;;;;;5109766;28;20020;-73
2021/03/03 10:58:49;;;;;;;11.63;3.30;;;11.40;53.30;;;;;;5108583;28;20035;-73
2021/03/03 11:01:15;;;;;;;4.68;2.90;;;11.50;52.00;;;;;;5109540;28;20457;-73
2021/03/03 11:03:51;;;;;;;17.30;4.32;;;11.50;52.70;;;;;;5112307;28;20031;-72
2021/03/03 11:06:17;;;;;;;9.55;4.45;;;11.40;52.10;;;;;;5107339;28;20029;-73
2021/03/03 11:08:44;;;;;;;10.57;3.65;;;11.50;52.30;;;;;;5103202;28;20042;-72
2021/03/03 11:11:10;;;;;;;9.75;4.10;;;11.60;52.90;;;;;;5103120;28;20032;-71
2021/03/03 11:13:37;;;;;;;10.13;3.47;;;11.70;52.60;;;;;;5102354;28;20024;-72
2021/03/03 11:16:04;;;;;;;10.63;3.30;;;11.90;52.30;;;;;;5103779;28;20023;-73
2021/03/03 11:18:32;;;;;;;9.82;3.35;;;11.90;52.00;;;;;;5101161;28;20107;-72
2021/03/03 11:20:58;;;;;;;11.38;3.38;;;11.90;52.00;;;;;;5109248;28;20049;-75
2021/03/03 11:23:25;;;;;;;9.23;3.22;;;11.90;51.70;;;;;;5102986;28;20028;-72
2021/03/03 11:25:52;;;;;;;14.32;4.72;;;11.90;51.70;;;;;;5103261;28;20033;-72
2021/03/03 11:28:18;;;;;;;7.10;3.15;;;11.80;51.20;;;;;;5102201;28;20023;-72
2021/03/03 11:30:45;;;;;;;8.00;4.03;;;11.80;51.00;;;;;;5102763;28;20028;-71
2021/03/03 11:33:11;;;;;;;10.50;3.72;;;11.70;51.10;;;;;;5105859;28;20352;-72
2021/03/03 11:35:38;;;;;;;6.97;3.13;;;11.60;51.30;;;;;;5099774;28;20112;-72
2021/03/03 11:38:04;;;;;;;13.98;2.95;;;11.60;51.30;;;;;;5103429;28;20031;-72
2021/03/03 11:40:31;;;;;;;3.25;2.35;;;11.60;51.80;;;;;;5102722;28;20028;-72
2021/03/03 11:42:57;;;;;;;5.57;2.88;;;11.50;52.20;;;;;;5103035;28;20024;-72
2021/03/03 11:45:24;;;;;;;6.03;2.60;;;11.40;52.20;;;;;;5104661;28;20027;-72
2021/03/03 11:47:50;;;;;;;7.88;2.95;;;11.40;52.30;;;;;;5104994;28;20048;-73
2021/03/03 11:50:16;;;;;;;6.88;3.17;;;11.40;52.20;;;;;;5104567;28;20034;-72
2021/03/03 11:52:43;;;;;;;8.45;3.58;;;11.40;52.20;;;;;;5100720;28;20165;-73
2021/03/03 11:55:09;;;;;;;7.68;3.60;;;11.50;51.60;;;;;;5106431;28;20024;-74
2021/03/03 11:57:37;;;;;;;9.75;3.22;;;11.60;51.60;;;;;;5108460;28;20056;-72
2021/03/03 12:00:09;;;;;;;7.10;3.67;;;11.70;52.50;;;;;;5106733;28;20024;-72
2021/03/03 12:02:35;;;;;;;11.05;3.20;;;11.70;52.00;;;;;;5102833;28;20034;-72
2021/03/03 12:05:03;;;;;;;11.45;3.38;;;11.60;51.80;;;;;;5107515;28;20047;-72
2021/03/03 12:07:29;;;;;;;8.38;2.90;;;11.50;51.80;;;;;;5105456;28;20468;-72
2021/03/03 12:09:56;;;;;;;6.13;3.17;;;11.40;52.00;;;;;;5105941;27;20027;-72
2021/03/03 12:12:22;;;;;;;5.40;3.47;;;11.30;51.90;;;;;;5104671;28;20055;-72
2021/03/03 12:14:49;;;;;;;9.52;3.45;;;11.20;52.60;;;;;;5102245;28;20035;-73
2021/03/03 12:17:15;;;;;;;7.70;3.80;;;11.20;52.30;;;;;;5100632;28;20032;-72
2021/03/03 12:19:42;;;;;;;9.30;3.80;;;11.10;52.30;;;;;;5106750;28;20020;-72
2021/03/03 12:22:08;;;;;;;10.65;3.45;;;11.20;53.70;;;;;;5103116;28;20028;-71
2021/03/03 12:24:35;;;;;;;7.72;3.92;;;11.30;53.00;;;;;;5105927;28;20111;-71
2021/03/03 12:27:01;;;;;;;6.43;3.92;;;11.40;53.80;;;;;;5106932;28;20454;-72
2021/03/03 12:29:28;;;;;;;9.25;3.45;;;11.40;53.30;;;;;;5105383;28;20051;-72
2021/03/03 12:31:55;;;;;;;7.18;3.40;;;11.30;53.60;;;;;;5105076;28;20472;-72
2021/03/03 12:34:21;;;;;;;8.30;3.88;;;11.20;53.20;;;;;;5105963;28;20032;-72
2021/03/03 12:36:47;;;;;;;10.98;3.55;;;11.20;53.90;;;;;;5106177;28;20028;-72
2021/03/03 12:39:14;;;;;;;12.65;3.38;;;11.30;54.20;;;;;;5105261;28;20400;-72
2021/03/03 12:41:40;;;;;;;9.23;3.65;;;11.20;54.20;;;;;;5105284;28;20039;-72
2021/03/03 12:44:07;;;;;;;6.85;3.00;;;11.10;53.90;;;;;;5106705;28;20028;-72
2021/03/03 12:46:33;;;;;;;9.55;3.70;;;11.00;54.10;;;;;;5104806;28;20365;-72
2021/03/03 12:49:00;;;;;;;5.97;3.15;;;10.90;53.50;;;;;;5104405;28;20016;-72
2021/03/03 12:51:26;;;;;;;11.18;3.55;;;10.90;54.50;;;;;;5104282;28;20024;-73
2021/03/03 12:53:52;;;;;;;6.22;3.42;;;10.90;54.50;;;;;;5105572;28;20502;-73